This is the latest recevied weather packets stored in our database for station/object YO4CIL-MG. If no packets are shown the sender has not sent any weather packets the latest 10 day(s).
| Time | Temp. | Humidity | Pressure | Rain* | Wind** | Luminosity | Snow |
|---|---|---|---|---|---|---|---|
| 1777748121 | 9.44° C | 63% | 1022.4 hPa | - | - | - | - |
| 1777747521 | 9.44° C | 64% | 1022.4 hPa | - | - | - | - |
| 1777746921 | 8.89° C | 67% | 1022.4 hPa | - | - | - | - |
| 1777746321 | 8.33° C | 67% | 1022.5 hPa | - | - | - | - |
| 1777745721 | 7.78° C | 68% | 1022.4 hPa | - | - | - | - |
| 1777745121 | 7.78° C | 68% | 1022.3 hPa | - | - | - | - |
| 1777744521 | 8.33° C | 66% | 1022.1 hPa | - | - | - | - |
| 1777743921 | 8.33° C | 66% | 1022 hPa | - | - | - | - |
| 1777743321 | 8.89° C | 65% | 1022 hPa | - | - | - | - |
| 1777742721 | 8.89° C | 64% | 1022 hPa | - | - | - | - |
| 1777742121 | 9.44° C | 63% | 1022 hPa | - | - | - | - |
| 1777741521 | 10° C | 61% | 1021.9 hPa | - | - | - | - |
| 1777740921 | 10° C | 61% | 1021.9 hPa | - | - | - | - |
| 1777740321 | 11.11° C | 56% | 1021.9 hPa | - | - | - | - |
| 1777739721 | 11.67° C | 55% | 1021.8 hPa | - | - | - | - |
| 1777739121 | 11.67° C | 56% | 1021.8 hPa | - | - | - | - |
| 1777738521 | 12.22° C | 54% | 1021.8 hPa | - | - | - | - |
| 1777737921 | 12.78° C | 52% | 1021.9 hPa | - | - | - | - |
| 1777737321 | 12.78° C | 50% | 1021.8 hPa | - | - | - | - |
| 1777736723 | 12.22° C | 51% | 1021.8 hPa | - | - | - | - |
| 1777736121 | 12.22° C | 51% | 1021.9 hPa | - | - | - | - |
| 1777735521 | 12.22° C | 49% | 1021.8 hPa | - | - | - | - |
| 1777734921 | 12.22° C | 50% | 1021.9 hPa | - | - | - | - |
| 1777734321 | 12.78° C | 47% | 1021.8 hPa | - | - | - | - |
| 1777733721 | 12.22° C | 48% | 1021.9 hPa | - | - | - | - |
* Rain since midnight (hover to see other rain measurements)
** Current wind speed in m/s (hover to see current wind gust speed)